Time;durP1;ratioP1;P1;durP2;ratioP2;P2;SDS_P1;SDS_P2;PMS_P1;PMS_P2;Temp;Humidity;BMP_temperature;BMP_pressure;BME280_temperature;BME280_humidity;BME280_pressure;Samples;Min_cycle;Max_cycle;Signal;HPM_P1;HPM_P2
2023/08/21 00:09:25;;;;;;;9.07;4.28;;;;;;;30.64;55.54;100137.38;31573534;28;20043;-76
2023/08/21 00:24:27;;;;;;;7.13;3.88;;;;;;;30.49;60.60;100134.47;31568909;28;20470;-75
2023/08/21 00:39:29;;;;;;;5.97;4.10;;;;;;;30.23;64.83;100115.22;31581844;28;20143;-76
2023/08/21 00:54:32;;;;;;;5.65;4.15;;;;;;;30.26;62.34;100112.03;31560185;28;20131;-75
2023/08/21 01:09:43;;;;;;;6.68;4.15;;;;;;;30.27;61.87;100113.53;31563907;28;20056;-75
2023/08/21 01:50:08;;;;;;;7.22;4.72;;;;;;;30.00;62.25;100096.25;31565724;27;20902;-76
2023/08/21 02:05:10;;;;;;;8.50;4.55;;;;;;;29.77;63.10;100098.19;31442821;28;20063;-75
2023/08/21 02:20:12;;;;;;;10.98;5.30;;;;;;;29.30;65.11;100096.41;31464701;28;20457;-76
2023/08/21 02:35:14;;;;;;;;;;;;;;;28.96;66.36;100104.91;31434639;28;20053;-76
2023/08/21 02:50:16;;;;;;;12.68;6.90;;;;;;;28.94;65.08;100115.13;31356653;28;20019;-76
2023/08/21 03:05:18;;;;;;;11.60;5.70;;;;;;;28.69;66.01;100098.69;31338791;28;20053;-76
2023/08/21 03:20:20;;;;;;;9.97;5.40;;;;;;;28.70;66.65;100089.03;31362665;28;20045;-75
2023/08/21 03:35:22;;;;;;;13.37;6.20;;;;;;;28.83;67.92;100102.94;31360860;28;20057;-76
2023/08/21 03:50:24;;;;;;;13.67;7.20;;;;;;;28.88;67.97;100103.34;31352577;28;20553;-76
2023/08/21 04:05:26;;;;;;;18.00;10.27;;;;;;;29.22;67.61;100106.78;31349688;28;20051;-79
2023/08/21 04:20:28;;;;;;;9.80;6.37;;;;;;;29.33;66.89;100109.28;31362730;28;20100;-79
2023/08/21 04:35:30;;;;;;;13.70;5.80;;;;;;;29.93;67.76;100119.34;31348034;28;20057;-81
2023/08/21 04:50:31;;;;;;;;;;;;;;;30.48;68.04;100132.97;31364553;28;20083;-79
2023/08/21 05:05:35;;;;;;;23.73;7.20;;;;;;;31.05;66.17;100127.84;31341811;28;19967;-78
2023/08/21 05:20:38;;;;;;;11.07;6.30;;;;;;;31.85;63.31;100124.59;31368954;28;20057;-80
2023/08/21 05:35:41;;;;;;;10.70;6.35;;;;;;;32.57;60.76;100126.69;31346041;28;20068;-80
2023/08/21 05:50:43;;;;;;;17.08;8.05;;;;;;;33.40;58.37;100130.94;31340123;28;20044;-80
2023/08/21 06:05:46;;;;;;;24.20;8.18;;;;;;;33.90;56.89;100125.16;31347729;28;20064;-77
2023/08/21 06:20:53;;;;;;;17.35;7.32;;;;;;;34.62;54.82;100129.47;31356631;28;20056;-79
2023/08/21 06:35:55;;;;;;;9.52;6.68;;;;;;;35.45;50.03;100127.34;31380480;28;20052;-77
2023/08/21 06:50:57;;;;;;;12.00;6.60;;;;;;;36.62;47.64;100123.06;31366339;28;20056;-80
2023/08/21 07:06:00;;;;;;;14.93;8.38;;;;;;;37.34;47.56;100126.56;31334941;28;20085;-76
2023/08/21 07:21:04;;;;;;;18.23;9.23;;;;;;;38.16;45.37;100127.72;31350422;28;20140;-76
2023/08/21 07:36:23;;;;;;;15.15;8.43;;;;;;;38.88;46.01;100116.56;31355496;28;20079;-86
2023/08/21 07:51:25;;;;;;;19.10;8.13;;;;;;;39.76;41.80;100121.66;31375958;28;20048;-80
2023/08/21 08:06:27;;;;;;;13.55;5.70;;;;;;;40.37;40.04;100116.56;31381522;28;20126;-86
2023/08/21 08:21:32;;;;;;;10.07;5.00;;;;;;;41.21;34.47;100099.63;31346173;28;20036;-84
2023/08/21 08:36:35;;;;;;;7.53;5.47;;;;;;;41.64;34.75;100090.34;31345836;28;20091;-79
2023/08/21 08:51:39;;;;;;;7.20;4.45;;;;;;;42.34;34.53;100077.94;31340843;28;20045;-80
2023/08/21 09:06:42;;;;;;;9.32;5.95;;;;;;;42.87;31.19;100066.75;31323568;28;20413;-77
2023/08/21 09:21:44;;;;;;;4.95;2.88;;;;;;;42.94;30.69;100059.19;31326850;28;20041;-73
2023/08/21 09:36:55;;;;;;;10.13;4.05;;;;;;;43.82;31.47;100058.50;31341348;28;20063;-82
2023/08/21 09:51:59;;;;;;;8.75;3.22;;;;;;;44.59;29.67;100058.53;31355991;28;20068;-81
2023/08/21 10:07:03;;;;;;;4.57;3.00;;;;;;;44.72;29.44;100048.22;31344215;28;20143;-79
2023/08/21 10:22:05;;;;;;;8.37;2.87;;;;;;;44.41;29.25;100032.16;31341675;28;20646;-82
2023/08/21 10:37:12;;;;;;;6.95;3.50;;;;;;;44.39;29.08;100029.94;31345405;28;20555;-79
2023/08/21 10:52:21;;;;;;;18.83;11.95;;;;;;;44.21;30.12;100032.84;31345522;28;20044;-76
2023/08/21 11:07:24;;;;;;;15.00;3.92;;;;;;;42.85;31.56;100018.88;31335288;28;20068;-79
2023/08/21 11:22:31;;;;;;;5.80;3.60;;;;;;;44.29;29.55;99994.47;31340194;28;20052;-77
2023/08/21 11:37:34;;;;;;;4.15;3.65;;;;;;;44.07;30.45;99983.72;31336555;28;20140;-80
2023/08/21 11:52:39;;;;;;;10.13;4.80;;;;;;;41.75;32.76;99972.63;31335803;28;20146;-85
2023/08/21 12:07:41;;;;;;;10.32;5.30;;;;;;;40.92;33.71;99966.50;31325991;28;20248;-79
2023/08/21 12:22:43;;;;;;;11.13;5.88;;;;;;;40.02;35.77;99966.13;31339009;28;20136;-86
2023/08/21 12:37:45;;;;;;;8.85;4.22;;;;;;;39.37;34.80;99951.94;31332743;28;20053;-84
2023/08/21 12:52:47;;;;;;;7.68;5.88;;;;;;;39.47;35.67;99943.97;31325048;28;20497;-80
2023/08/21 13:07:49;;;;;;;7.90;4.30;;;;;;;38.59;36.46;99974.41;31357015;28;20052;-83
2023/08/21 13:22:52;;;;;;;10.25;6.10;;;;;;;37.71;38.84;99982.50;31335061;28;20075;-82
2023/08/21 13:37:56;;;;;;;8.60;6.53;;;;;;;36.74;41.24;99979.72;31328262;28;20486;-78
2023/08/21 13:53:02;;;;;;;11.00;7.50;;;;;;;35.73;41.27;99992.44;31396417;28;20048;-86
2023/08/21 14:08:05;;;;;;;7.40;5.18;;;;;;;35.74;42.29;99979.78;31328797;28;20091;-77
2023/08/21 14:23:07;;;;;;;13.50;6.38;;;;;;;35.35;41.33;99974.22;31328124;28;20045;-76
2023/08/21 14:38:12;;;;;;;9.20;6.57;;;;;;;35.33;41.66;99979.72;31330883;28;20076;-78
2023/08/21 14:53:14;;;;;;;5.22;4.45;;;;;;;35.59;43.61;99977.31;31359628;28;20098;-78
2023/08/21 15:08:17;;;;;;;8.65;5.20;;;;;;;35.58;46.09;99995.59;31340646;28;20092;-81
2023/08/21 15:23:19;;;;;;;23.00;10.70;;;;;;;35.48;49.06;100001.97;31334143;28;20530;-78
2023/08/21 15:38:21;;;;;;;9.90;6.47;;;;;;;35.28;52.43;100011.03;31327793;28;20123;-79
2023/08/21 15:53:23;;;;;;;52.47;31.50;;;;;;;35.13;54.28;100017.72;31323727;28;20140;-77
2023/08/21 16:08:28;;;;;;;19.10;13.20;;;;;;;34.78;56.34;100023.59;31316299;28;20044;-78
2023/08/21 16:23:30;;;;;;;11.35;8.68;;;;;;;34.37;56.15;100030.28;31325875;28;20897;-78
2023/08/21 16:38:33;;;;;;;17.13;8.85;;;;;;;34.14;56.70;100031.34;31343012;28;20118;-81
2023/08/21 16:53:35;;;;;;;14.20;7.57;;;;;;;34.25;56.28;100040.59;31343323;28;20478;-78
2023/08/21 17:08:37;;;;;;;27.23;15.20;;;;;;;34.02;57.34;100036.00;31348603;28;20092;-79
2023/08/21 17:23:39;;;;;;;13.20;8.68;;;;;;;33.74;58.98;100045.00;31353175;28;20087;-78
2023/08/21 17:38:42;;;;;;;14.73;9.20;;;;;;;33.40;60.64;100046.53;31350972;28;20107;-79
2023/08/21 17:53:44;;;;;;;15.63;9.18;;;;;;;33.15;62.18;100062.72;31357359;28;20076;-79
2023/08/21 18:08:46;;;;;;;14.43;9.68;;;;;;;32.98;63.51;100054.25;31341054;28;20064;-79
2023/08/21 18:23:51;;;;;;;18.60;11.52;;;;;;;32.38;68.42;100053.38;31363368;28;20056;-78
2023/08/21 18:38:53;;;;;;;13.32;10.52;;;;;;;32.05;71.66;100050.59;31371523;28;20110;-79
2023/08/21 18:53:55;;;;;;;11.55;9.20;;;;;;;31.91;73.71;100051.38;31366798;28;20045;-81
2023/08/21 19:09:00;;;;;;;13.43;10.15;;;;;;;31.83;76.11;100057.06;31365532;28;20064;-81
2023/08/21 19:24:02;;;;;;;16.60;9.02;;;;;;;31.58;77.63;100059.00;31364834;28;20063;-83
2023/08/21 19:39:05;;;;;;;17.70;9.55;;;;;;;31.36;78.86;100072.53;31379633;28;20085;-82
2023/08/21 19:54:07;;;;;;;13.93;9.55;;;;;;;31.11;80.83;100075.19;31357536;28;20494;-80
2023/08/21 20:09:12;;;;;;;23.48;11.15;;;;;;;31.00;81.17;100074.78;31336511;28;21988;-83
2023/08/21 20:24:14;;;;;;;13.88;10.00;;;;;;;31.33;78.22;100079.25;31358534;28;20513;-83
2023/08/21 20:39:41;;;;;;;18.85;9.70;;;;;;;31.43;76.78;100088.56;31329651;28;20048;-84
2023/08/21 20:54:46;;;;;;;14.80;11.10;;;;;;;31.47;76.37;100088.94;31363392;28;20059;-83
2023/08/21 21:09:49;;;;;;;15.77;10.90;;;;;;;31.17;77.12;100103.78;31360149;28;20044;-84
2023/08/21 21:24:56;;;;;;;14.68;9.90;;;;;;;30.85;78.90;100098.72;31350548;28;20131;-85
2023/08/21 21:39:58;;;;;;;15.35;9.48;;;;;;;30.68;80.63;100095.72;31376610;28;20052;-83
2023/08/21 21:55:00;;;;;;;13.68;10.23;;;;;;;30.37;83.35;100091.34;31360842;28;20052;-84
2023/08/21 22:10:05;;;;;;;13.60;10.30;;;;;;;30.16;85.96;100089.44;31363175;28;20395;-84
2023/08/21 22:25:08;;;;;;;13.77;9.55;;;;;;;29.94;87.80;100084.47;31362658;28;20087;-85
2023/08/21 22:40:10;;;;;;;16.73;10.27;;;;;;;29.74;90.17;100086.06;31350921;28;20493;-84
2023/08/21 22:55:12;;;;;;;17.48;11.68;;;;;;;29.44;93.03;100075.47;31359570;28;20084;-84
2023/08/21 23:10:15;;;;;;;18.13;10.95;;;;;;;29.29;95.46;100071.81;31358431;28;20137;-84
2023/08/21 23:25:16;;;;;;;;;;;;;;;29.06;100.00;100068.84;31347640;28;20044;-85
2023/08/21 23:40:20;;;;;;;13.93;9.85;;;;;;;28.90;100.00;100075.63;31359145;28;19933;-84
2023/08/21 23:55:22;;;;;;;21.77;13.05;;;;;;;29.05;100.00;100079.28;31355229;28;20048;-82
